createdAt,value
2018-06-24T00:02:24.714Z,13.77
2018-06-24T00:08:31.577Z,13.92
2018-06-24T00:11:23.188Z,13.86
2018-06-24T00:16:40.500Z,13.78
2018-06-24T00:22:19.908Z,13.66
2018-06-24T00:24:50.177Z,13.54
2018-06-24T00:27:19.421Z,13.63
2018-06-24T00:29:58.457Z,13.72
2018-06-24T00:32:34.880Z,13.49
2018-06-24T00:38:31.209Z,13.18
2018-06-24T00:46:05.721Z,12.71
2018-06-24T00:48:35.960Z,12.66
2018-06-24T00:51:14.012Z,12.51
2018-06-24T00:53:57.058Z,12.39
2018-06-24T00:56:26.421Z,12.29
2018-06-24T00:58:55.156Z,12.28
2018-06-24T01:01:23.516Z,12.22
2018-06-24T01:03:53.844Z,12.15
2018-06-24T01:06:22.772Z,12.10
2018-06-24T01:09:36.624Z,12.12
2018-06-24T01:12:06.133Z,12.07
2018-06-24T01:14:34.554Z,12.01
2018-06-24T01:17:03.372Z,11.94
2018-06-24T01:19:32.117Z,11.92
2018-06-24T01:22:00.942Z,11.90
2018-06-24T01:29:31.707Z,11.90
2018-06-24T01:32:14.583Z,11.91
2018-06-24T01:34:44.493Z,12.06
2018-06-24T01:39:55.064Z,12.28
2018-06-24T01:42:23.936Z,12.35
2018-06-24T01:47:46.020Z,12.65
2018-06-24T01:50:40.165Z,12.65
2018-06-24T01:53:08.768Z,12.63
2018-06-24T01:55:38.244Z,12.67
2018-06-24T01:58:30.967Z,12.72
2018-06-24T02:00:59.423Z,12.66
2018-06-24T02:06:38.122Z,12.63
2018-06-24T02:09:11.543Z,12.60
2018-06-24T02:20:06.817Z,12.04
2018-06-24T02:22:35.351Z,12.04
2018-06-24T02:25:04.523Z,11.91
2018-06-24T02:27:37.633Z,11.80
2018-06-24T02:30:06.515Z,11.84
2018-06-24T02:32:46.476Z,11.85
2018-06-24T02:38:21.940Z,11.94
2018-06-24T02:40:50.479Z,11.78
2018-06-24T02:43:19.512Z,11.71
2018-06-24T02:46:00.921Z,11.66
2018-06-24T02:48:29.744Z,11.77
2018-06-24T02:50:59.550Z,11.88
2018-06-24T02:53:28.489Z,11.89
2018-06-24T02:55:58.590Z,11.79
2018-06-24T02:58:27.001Z,11.70
2018-06-24T03:04:33.112Z,11.51
2018-06-24T03:07:01.768Z,11.47
2018-06-24T03:09:38.006Z,11.59
2018-06-24T03:12:07.753Z,11.62
2018-06-24T03:17:19.068Z,11.55
2018-06-24T03:22:35.276Z,11.46
2018-06-24T03:25:03.676Z,11.54
2018-06-24T03:27:40.230Z,11.60
2018-06-24T03:30:09.314Z,11.63
2018-06-24T03:32:45.061Z,11.60
2018-06-24T03:35:23.059Z,11.66
2018-06-24T03:40:35.029Z,11.68
2018-06-24T03:43:08.388Z,11.65
2018-06-24T03:45:37.247Z,11.77
2018-06-24T03:50:45.221Z,12.04
2018-06-24T03:53:24.121Z,12.25
2018-06-24T03:55:52.652Z,12.22
2018-06-24T03:58:21.996Z,12.14
2018-06-24T04:01:14.581Z,12.07
2018-06-24T04:03:43.105Z,12.01
2018-06-24T04:06:11.484Z,12.07
2018-06-24T04:08:46.030Z,12.02
2018-06-24T04:11:14.437Z,12.04
2018-06-24T04:13:44.985Z,12.23
2018-06-24T04:16:13.933Z,12.32
2018-06-24T04:18:59.399Z,12.36
2018-06-24T04:24:11.329Z,12.69
2018-06-24T04:26:46.845Z,12.97
2018-06-24T04:32:31.867Z,13.23
2018-06-24T04:35:00.311Z,13.06
2018-06-24T04:37:29.121Z,12.95
2018-06-24T04:39:57.524Z,12.96
2018-06-24T04:42:27.092Z,13.06
2018-06-24T04:44:56.410Z,13.19
2018-06-24T04:50:22.288Z,13.29
2018-06-24T04:52:51.380Z,12.83
2018-06-24T04:55:19.680Z,12.92
2018-06-24T04:58:01.924Z,12.98
2018-06-24T05:00:31.924Z,13.05
2018-06-24T05:03:07.956Z,13.10
2018-06-24T05:05:42.229Z,13.23
2018-06-24T05:13:12.864Z,13.50
2018-06-24T05:19:26.684Z,14.06
2018-06-24T05:21:56.336Z,14.39
2018-06-24T05:28:42.413Z,14.85
2018-06-24T05:31:30.570Z,15.16
2018-06-24T05:33:59.272Z,15.36
2018-06-24T05:42:13.441Z,17.02
2018-06-24T05:48:00.181Z,20.28
2018-06-24T05:56:36.384Z,20.60
2018-06-24T05:59:04.680Z,20.79
2018-06-24T06:25:54.917Z,20.00
2018-06-24T06:28:23.207Z,20.53
2018-06-24T06:35:34.606Z,20.16
2018-06-24T06:38:19.769Z,19.78
2018-06-24T06:40:48.377Z,19.35
2018-06-24T06:43:16.834Z,19.43
2018-06-24T06:49:24.778Z,19.06
2018-06-24T06:51:54.551Z,18.96
2018-06-24T06:54:23.089Z,19.25
2018-06-24T06:56:51.373Z,19.38
2018-06-24T06:59:19.868Z,19.59
2018-06-24T07:01:53.444Z,19.75
2018-06-24T07:04:21.860Z,19.54
2018-06-24T07:06:52.814Z,19.56
2018-06-24T07:09:21.176Z,19.58
2018-06-24T07:11:49.605Z,19.45
2018-06-24T07:14:19.337Z,19.27
2018-06-24T07:16:47.640Z,19.20
2018-06-24T07:19:25.861Z,18.46
2018-06-24T07:21:57.413Z,18.66
2018-06-24T07:24:26.202Z,18.69
2018-06-24T07:26:55.753Z,18.97
2018-06-24T07:29:29.583Z,18.87
2018-06-24T07:31:58.196Z,18.74
2018-06-24T07:34:29.825Z,18.80
2018-06-24T07:37:03.101Z,18.57
2018-06-24T07:39:33.680Z,19.00
2018-06-24T07:42:10.482Z,19.18
2018-06-24T07:44:38.840Z,19.35
2018-06-24T07:47:10.377Z,19.19
2018-06-24T07:49:39.125Z,18.96
2018-06-24T07:52:07.664Z,18.63
2018-06-24T07:54:36.340Z,18.41
2018-06-24T07:57:05.284Z,18.62
2018-06-24T07:59:33.997Z,18.80
2018-06-24T08:02:03.691Z,18.95
2018-06-24T08:04:33.503Z,19.04
2018-06-24T08:07:02.839Z,18.63
2018-06-24T08:09:31.292Z,18.88
2018-06-24T08:12:00.240Z,19.16
2018-06-24T08:14:29.235Z,19.30
2018-06-24T08:16:57.555Z,19.52
2018-06-24T08:19:26.794Z,19.60
2018-06-24T08:21:55.060Z,19.96
2018-06-24T08:24:23.238Z,20.26
2018-06-24T08:26:52.388Z,20.41
2018-06-24T08:29:20.516Z,19.99
2018-06-24T08:31:48.590Z,19.82
2018-06-24T08:34:16.712Z,19.51
2018-06-24T08:36:44.851Z,19.69
2018-06-24T08:39:13.042Z,19.24
2018-06-24T08:41:41.299Z,18.99
2018-06-24T08:44:16.848Z,19.20
2018-06-24T08:46:45.029Z,19.48
2018-06-24T08:49:13.160Z,19.67
2018-06-24T08:51:41.268Z,18.45
2018-06-24T08:54:14.115Z,18.36
2018-06-24T08:56:42.184Z,18.14
2018-06-24T08:59:10.334Z,18.33
2018-06-24T09:01:38.407Z,18.76
2018-06-24T09:04:06.504Z,19.30
2018-06-24T09:06:34.559Z,19.65
2018-06-24T09:09:02.813Z,19.76
2018-06-24T09:11:31.069Z,19.85
2018-06-24T09:13:59.141Z,20.19
2018-06-24T09:16:27.233Z,20.09
2018-06-24T09:18:55.339Z,19.72
2018-06-24T09:21:23.498Z,19.71
2018-06-24T09:23:51.552Z,19.92
2018-06-24T09:26:19.687Z,18.94
2018-06-24T09:28:47.751Z,19.30
2018-06-24T09:31:15.859Z,19.07
2018-06-24T09:33:43.995Z,18.88
2018-06-24T09:36:12.204Z,19.19
2018-06-24T09:38:40.291Z,19.28
2018-06-24T09:41:08.509Z,19.60
2018-06-24T09:43:36.568Z,20.05
2018-06-24T09:46:04.736Z,20.03
2018-06-24T09:48:33.407Z,20.05
2018-06-24T09:51:01.511Z,19.42
2018-06-24T09:53:29.592Z,19.71
2018-06-24T09:55:57.671Z,19.60
2018-06-24T09:58:25.756Z,19.34
2018-06-24T10:00:53.840Z,19.80
2018-06-24T10:03:21.987Z,20.10
2018-06-24T10:05:50.831Z,19.68
2018-06-24T10:08:18.948Z,19.84
2018-06-24T10:10:48.032Z,19.74
2018-06-24T10:13:16.211Z,19.37
2018-06-24T10:15:44.508Z,19.03
2018-06-24T10:18:12.608Z,18.80
2018-06-24T10:20:47.552Z,19.13
2018-06-24T10:23:15.888Z,19.96
2018-06-24T10:25:43.988Z,20.52
2018-06-24T10:28:12.126Z,20.77
2018-06-24T10:30:40.220Z,20.71
2018-06-24T10:33:08.276Z,20.57
2018-06-24T10:35:36.369Z,20.15
2018-06-24T10:38:04.903Z,20.33
2018-06-24T10:40:33.019Z,20.35
2018-06-24T10:43:01.124Z,20.36
2018-06-24T10:45:29.392Z,20.81
2018-06-24T10:47:57.552Z,20.83
2018-06-24T10:50:26.195Z,20.22
2018-06-24T10:52:54.349Z,20.54
2018-06-24T10:55:22.415Z,20.16
2018-06-24T10:57:50.535Z,20.17
2018-06-24T11:00:18.660Z,20.30
2018-06-24T11:02:46.754Z,20.22
2018-06-24T11:05:14.871Z,20.13
2018-06-24T11:07:43.252Z,19.76
2018-06-24T11:10:11.376Z,20.01
2018-06-24T11:12:39.448Z,20.44
2018-06-24T11:15:07.543Z,20.18
2018-06-24T11:17:36.040Z,20.47
2018-06-24T11:20:04.164Z,20.10
2018-06-24T11:22:32.255Z,19.85
2018-06-24T11:25:00.652Z,20.25
2018-06-24T11:27:28.728Z,20.70
2018-06-24T11:29:56.843Z,20.81
2018-06-24T11:32:25.517Z,20.29
2018-06-24T11:34:53.588Z,19.97
2018-06-24T11:37:21.818Z,19.91
2018-06-24T11:39:49.897Z,20.74
2018-06-24T11:42:18.060Z,21.29
2018-06-24T11:44:46.135Z,21.33
2018-06-24T11:47:14.285Z,21.27
2018-06-24T11:49:42.800Z,20.55
2018-06-24T11:52:11.791Z,20.25
2018-06-24T11:54:40.759Z,20.40
2018-06-24T11:57:09.167Z,21.15
2018-06-24T11:59:37.285Z,21.28
2018-06-24T12:02:06.047Z,21.65
2018-06-24T12:04:34.053Z,21.01
2018-06-24T12:07:02.172Z,20.43
2018-06-24T12:09:30.284Z,20.00
2018-06-24T12:11:58.437Z,20.21
2018-06-24T12:14:26.535Z,20.37
2018-06-24T12:16:54.657Z,19.73
2018-06-24T12:19:22.943Z,19.96
2018-06-24T12:21:51.379Z,20.10
2018-06-24T12:24:19.481Z,20.24
2018-06-24T12:26:47.581Z,20.50
2018-06-24T12:29:16.021Z,20.99
2018-06-24T12:31:44.079Z,20.32
2018-06-24T12:34:12.441Z,19.99
2018-06-24T12:36:42.789Z,19.98
2018-06-24T12:39:13.885Z,19.88
2018-06-24T12:41:41.988Z,19.49
2018-06-24T12:44:10.516Z,20.38
2018-06-24T12:46:38.823Z,20.57
2018-06-24T12:49:08.108Z,20.86
2018-06-24T12:51:37.305Z,21.37
2018-06-24T12:54:05.683Z,21.50
2018-06-24T12:56:34.087Z,21.61
2018-06-24T12:59:02.389Z,21.31
2018-06-24T13:01:30.424Z,21.57
2018-06-24T13:03:58.638Z,21.38
2018-06-24T13:06:26.812Z,21.31
2018-06-24T13:08:55.559Z,21.04
2018-06-24T13:11:23.696Z,20.83
2018-06-24T13:13:51.776Z,20.74
2018-06-24T13:16:19.849Z,20.97
2018-06-24T13:18:48.011Z,20.20
2018-06-24T13:21:16.297Z,20.44
2018-06-24T13:23:44.315Z,20.73
2018-06-24T13:26:12.424Z,20.49
2018-06-24T13:28:41.284Z,20.98
2018-06-24T13:31:10.504Z,21.72
2018-06-24T13:33:39.197Z,21.89
2018-06-24T13:36:07.729Z,22.10
2018-06-24T13:38:35.980Z,21.86
2018-06-24T13:41:04.240Z,22.81
2018-06-24T13:43:32.332Z,22.09
2018-06-24T13:46:00.695Z,21.54
2018-06-24T13:48:28.884Z,21.00
2018-06-24T13:50:57.371Z,20.36
2018-06-24T13:53:26.293Z,20.52
2018-06-24T13:55:55.040Z,21.15
2018-06-24T13:58:23.164Z,21.03
2018-06-24T14:00:51.755Z,21.04
2018-06-24T14:03:19.895Z,21.31
2018-06-24T14:05:48.020Z,21.27
2018-06-24T14:08:16.320Z,21.18
2018-06-24T14:10:44.400Z,20.72
2018-06-24T14:13:12.520Z,20.77
2018-06-24T14:15:41.770Z,21.31
2018-06-24T14:18:09.896Z,21.63
2018-06-24T14:20:37.972Z,21.88
2018-06-24T14:23:06.469Z,21.27
2018-06-24T14:25:36.208Z,21.41
2018-06-24T14:28:04.495Z,21.64
2018-06-24T14:30:32.600Z,21.32
2018-06-24T14:33:00.837Z,21.31
2018-06-24T14:35:28.945Z,21.17
2018-06-24T14:37:57.085Z,21.06
2018-06-24T14:40:25.200Z,21.22
2018-06-24T14:42:53.321Z,21.20
2018-06-24T14:45:21.393Z,21.56
2018-06-24T14:47:49.737Z,21.94
2018-06-24T14:50:17.852Z,22.08
2018-06-24T14:52:46.408Z,21.95
2018-06-24T14:55:14.501Z,21.99
2018-06-24T14:57:43.336Z,21.45
2018-06-24T15:00:11.451Z,20.91
2018-06-24T15:02:42.624Z,20.98
2018-06-24T15:05:11.819Z,21.41
2018-06-24T15:07:40.247Z,21.55
2018-06-24T15:10:08.600Z,21.11
2018-06-24T15:12:36.724Z,21.35
2018-06-24T15:15:04.832Z,21.27
2018-06-24T15:17:32.923Z,20.93
2018-06-24T15:20:01.304Z,20.84
2018-06-24T15:22:29.399Z,21.28
2018-06-24T15:24:57.526Z,21.59
2018-06-24T15:27:25.619Z,21.64
2018-06-24T15:29:53.699Z,21.35
2018-06-24T15:32:21.780Z,21.44
2018-06-24T15:34:50.296Z,21.28
2018-06-24T15:37:18.391Z,21.17
2018-06-24T15:39:46.561Z,20.74
2018-06-24T15:42:15.153Z,20.41
2018-06-24T15:44:43.599Z,20.58
2018-06-24T15:47:11.734Z,20.71
2018-06-24T15:49:39.835Z,21.07
2018-06-24T15:52:08.298Z,21.16
2018-06-24T15:54:36.383Z,21.16
2018-06-24T15:57:04.585Z,21.59
2018-06-24T15:59:33.017Z,21.88
2018-06-24T16:02:01.189Z,21.56
2018-06-24T16:04:29.260Z,21.47
2018-06-24T16:09:50.601Z,22.31
2018-06-24T16:12:18.804Z,22.47
2018-06-24T16:14:46.880Z,22.54
2018-06-24T16:17:15.048Z,22.66
2018-06-24T16:19:43.723Z,22.84
2018-06-24T16:22:11.821Z,23.36
2018-06-24T16:24:40.192Z,23.70
2018-06-24T16:27:08.951Z,23.41
2018-06-24T16:29:37.036Z,24.17
2018-06-24T16:32:05.167Z,23.53
2018-06-24T16:34:33.281Z,23.02
2018-06-24T16:37:01.589Z,22.56
2018-06-24T16:39:30.034Z,22.27
2018-06-24T16:41:58.127Z,22.23
2018-06-24T16:44:26.232Z,22.08
2018-06-24T16:46:54.469Z,22.03
2018-06-24T16:49:22.554Z,21.37
2018-06-24T16:51:50.646Z,21.46
2018-06-24T16:54:18.728Z,21.49
2018-06-24T16:56:47.916Z,21.32
2018-06-24T16:59:16.088Z,21.30
2018-06-24T17:01:44.165Z,21.23
2018-06-24T17:04:12.288Z,21.15
2018-06-24T17:06:40.427Z,20.94
2018-06-24T17:09:09.495Z,20.94
2018-06-24T17:11:37.791Z,20.68
2018-06-24T17:14:05.936Z,20.81
2018-06-24T17:16:34.583Z,20.65
2018-06-24T17:19:03.783Z,20.52
2018-06-24T17:21:31.865Z,20.79
2018-06-24T17:23:59.949Z,20.79
2018-06-24T17:26:28.028Z,20.80
2018-06-24T17:28:56.111Z,20.60
2018-06-24T17:31:24.207Z,20.59
2018-06-24T17:33:52.620Z,20.51
2018-06-24T17:36:20.725Z,20.32
2018-06-24T17:38:49.554Z,20.32
2018-06-24T17:41:17.639Z,20.32
2018-06-24T17:43:45.751Z,20.11
2018-06-24T17:46:14.125Z,19.94
2018-06-24T17:48:42.258Z,19.97
2018-06-24T17:51:10.340Z,19.92
2018-06-24T17:53:38.432Z,19.94
2018-06-24T17:56:06.937Z,20.03
2018-06-24T17:58:35.104Z,19.92
2018-06-24T18:01:03.292Z,19.81
2018-06-24T18:03:31.633Z,19.74
2018-06-24T18:05:59.720Z,19.75
2018-06-24T18:08:27.804Z,19.67
2018-06-24T18:10:56.004Z,19.66
2018-06-24T18:13:24.089Z,19.52
2018-06-24T18:15:52.181Z,19.51
2018-06-24T18:18:20.515Z,19.39
2018-06-24T18:20:48.915Z,19.41
2018-06-24T18:23:17.013Z,19.36
2018-06-24T18:25:45.255Z,19.31
2018-06-24T18:28:13.634Z,19.26
2018-06-24T18:30:42.181Z,19.22
2018-06-24T18:33:10.374Z,19.25
2018-06-24T18:35:38.391Z,19.16
2018-06-24T18:38:06.517Z,19.12
2018-06-24T18:40:34.611Z,19.05
2018-06-24T18:43:02.697Z,19.00
2018-06-24T18:45:30.763Z,19.02
2018-06-24T18:47:58.856Z,18.92
2018-06-24T18:50:26.932Z,18.92
2018-06-24T18:52:55.017Z,18.95
2018-06-24T18:55:23.226Z,18.91
2018-06-24T18:57:51.304Z,18.87
2018-06-24T19:00:19.448Z,18.90
2018-06-24T19:02:47.648Z,18.86
2018-06-24T19:05:15.570Z,18.83
2018-06-24T19:07:43.644Z,18.83
2018-06-24T19:10:11.727Z,18.80
2018-06-24T19:12:40.017Z,18.85
2018-06-24T19:15:08.096Z,18.73
2018-06-24T19:17:36.184Z,18.74
2018-06-24T19:20:04.271Z,18.74
2018-06-24T19:22:32.359Z,18.72
2018-06-24T19:25:00.440Z,18.66
2018-06-24T19:27:28.503Z,18.68
2018-06-24T19:29:57.123Z,18.69
2018-06-24T19:32:25.510Z,18.59
2018-06-24T19:34:53.605Z,18.60
2018-06-24T19:37:21.740Z,18.57
2018-06-24T19:39:49.840Z,18.53
2018-06-24T19:42:17.971Z,18.55
2018-06-24T19:44:46.025Z,18.60
2018-06-24T19:47:14.143Z,18.44
2018-06-24T19:49:42.268Z,18.50
2018-06-24T19:52:10.339Z,18.36
2018-06-24T19:54:38.458Z,18.41
2018-06-24T19:57:06.517Z,18.36
2018-06-24T19:59:34.644Z,18.36
2018-06-24T20:02:03.157Z,18.37
2018-06-24T20:04:31.236Z,18.32
2018-06-24T20:06:59.785Z,18.32
2018-06-24T20:09:28.099Z,18.29
2018-06-24T20:11:57.000Z,18.28
2018-06-24T20:14:25.076Z,18.27
2018-06-24T20:16:53.146Z,18.26
2018-06-24T20:19:21.212Z,18.25
2018-06-24T20:21:49.299Z,18.34
2018-06-24T20:24:17.388Z,18.22
2018-06-24T20:26:45.520Z,18.26
2018-06-24T20:29:13.588Z,18.19
2018-06-24T20:31:42.058Z,18.12
2018-06-24T20:34:10.135Z,18.12
2018-06-24T20:36:38.212Z,18.09
2018-06-24T20:39:07.949Z,18.08
2018-06-24T20:41:36.124Z,18.01
2018-06-24T20:44:04.435Z,18.00
2018-06-24T20:46:32.508Z,18.02
2018-06-24T20:49:00.580Z,17.94
2018-06-24T20:51:28.667Z,17.90
2018-06-24T20:53:56.744Z,17.87
2018-06-24T20:56:24.879Z,17.87
2018-06-24T20:58:53.324Z,17.87
2018-06-24T21:01:21.402Z,17.79
2018-06-24T21:03:49.511Z,17.79
2018-06-24T21:06:17.549Z,17.78
2018-06-24T21:08:45.643Z,17.73
2018-06-24T21:11:13.768Z,17.71
2018-06-24T21:13:41.900Z,17.65
2018-06-24T21:16:10.041Z,17.61
2018-06-24T21:18:38.190Z,17.54
2018-06-24T21:21:06.254Z,17.54
2018-06-24T21:23:34.309Z,17.51
2018-06-24T21:26:02.384Z,17.50
2018-06-24T21:28:30.486Z,17.46
2018-06-24T21:30:59.735Z,17.43
2018-06-24T21:33:27.817Z,17.36
2018-06-24T21:35:55.904Z,17.36
2018-06-24T21:38:23.971Z,17.33
2018-06-24T21:40:52.064Z,17.28
2018-06-24T21:43:20.227Z,17.28
2018-06-24T21:45:48.222Z,17.22
2018-06-24T21:48:16.417Z,17.20
2018-06-24T21:50:44.481Z,17.18
2018-06-24T21:53:12.593Z,17.14
2018-06-24T21:55:40.675Z,17.07
2018-06-24T21:58:08.755Z,17.09
2018-06-24T22:02:36.924Z,17.06
2018-06-24T22:05:05.312Z,17.06
2018-06-24T22:07:34.545Z,17.08
2018-06-24T22:10:02.615Z,17.03
2018-06-24T22:12:30.708Z,17.04
2018-06-24T22:14:58.790Z,17.00
2018-06-24T22:17:27.388Z,16.97
2018-06-24T22:19:55.640Z,16.99
2018-06-24T22:22:23.739Z,16.92
2018-06-24T22:24:51.823Z,16.88
2018-06-24T22:27:19.896Z,16.94
2018-06-24T22:29:48.313Z,16.95
2018-06-24T22:32:16.590Z,16.83
2018-06-24T22:34:44.691Z,16.83
2018-06-24T22:37:13.607Z,16.77
2018-06-24T22:39:41.734Z,16.73
2018-06-24T22:42:09.836Z,16.67
2018-06-24T22:44:37.908Z,16.67
2018-06-24T22:47:06.083Z,16.65
2018-06-24T22:49:34.252Z,16.65
2018-06-24T22:52:02.329Z,16.65
2018-06-24T22:54:30.665Z,16.66
2018-06-24T22:56:58.784Z,16.62
2018-06-24T22:59:38.163Z,16.58
2018-06-24T23:02:06.301Z,16.61
2018-06-24T23:04:34.388Z,16.56
2018-06-24T23:07:02.821Z,16.52
2018-06-24T23:09:31.201Z,16.54
2018-06-24T23:11:59.321Z,16.53
2018-06-24T23:14:27.412Z,16.50
2018-06-24T23:16:55.510Z,16.53
2018-06-24T23:19:23.592Z,16.50
2018-06-24T23:21:51.729Z,16.51
2018-06-24T23:24:19.811Z,16.42
2018-06-24T23:26:47.908Z,16.45
2018-06-24T23:29:15.997Z,16.42
2018-06-24T23:31:44.132Z,16.41
2018-06-24T23:34:12.333Z,16.36
2018-06-24T23:36:41.331Z,16.30
2018-06-24T23:39:10.439Z,16.31
2018-06-24T23:41:38.513Z,16.26
2018-06-24T23:44:06.612Z,16.23
2018-06-24T23:46:34.704Z,16.24
2018-06-24T23:49:03.033Z,16.28
2018-06-24T23:51:31.123Z,16.32
2018-06-24T23:53:59.219Z,16.25
2018-06-24T23:56:27.337Z,16.17
2018-06-24T23:58:55.444Z,16.16
